sensor_id;sensor_type;location;lat;lon;timestamp;temperature;humidity
82788;DHT22;72529;51.786;4.662;2024-03-08T00:00:40;6.44;74.59
82788;DHT22;72529;51.786;4.662;2024-03-08T00:03:08;6.52;74.81
82788;DHT22;72529;51.786;4.662;2024-03-08T00:05:36;6.42;75.08
82788;DHT22;72529;51.786;4.662;2024-03-08T00:08:01;6.46;74.65
82788;DHT22;72529;51.786;4.662;2024-03-08T00:10:27;6.44;74.86
82788;DHT22;72529;51.786;4.662;2024-03-08T00:12:54;6.31;74.53
82788;DHT22;72529;51.786;4.662;2024-03-08T00:15:20;6.38;74.82
82788;DHT22;72529;51.786;4.662;2024-03-08T00:17:48;6.41;74.60
82788;DHT22;72529;51.786;4.662;2024-03-08T00:20:14;6.33;74.69
82788;DHT22;72529;51.786;4.662;2024-03-08T00:22:40;6.38;74.78
82788;DHT22;72529;51.786;4.662;2024-03-08T00:25:07;6.30;74.90
82788;DHT22;72529;51.786;4.662;2024-03-08T00:27:36;6.27;74.62
82788;DHT22;72529;51.786;4.662;2024-03-08T00:30:03;6.34;74.71
82788;DHT22;72529;51.786;4.662;2024-03-08T00:32:29;6.34;74.64
82788;DHT22;72529;51.786;4.662;2024-03-08T00:34:54;6.28;74.68
82788;DHT22;72529;51.786;4.662;2024-03-08T00:37:21;6.42;74.19
82788;DHT22;72529;51.786;4.662;2024-03-08T00:39:48;6.35;74.22
82788;DHT22;72529;51.786;4.662;2024-03-08T00:42:15;6.28;74.16
82788;DHT22;72529;51.786;4.662;2024-03-08T00:44:40;6.27;74.36
82788;DHT22;72529;51.786;4.662;2024-03-08T00:47:06;6.23;74.38
82788;DHT22;72529;51.786;4.662;2024-03-08T00:49:31;6.25;74.49
82788;DHT22;72529;51.786;4.662;2024-03-08T00:51:57;6.31;74.25
82788;DHT22;72529;51.786;4.662;2024-03-08T00:54:23;6.25;74.11
82788;DHT22;72529;51.786;4.662;2024-03-08T00:56:48;6.17;74.51
82788;DHT22;72529;51.786;4.662;2024-03-08T00:59:13;6.21;74.21
82788;DHT22;72529;51.786;4.662;2024-03-08T01:01:40;6.24;74.08
82788;DHT22;72529;51.786;4.662;2024-03-08T01:04:05;6.07;74.12
82788;DHT22;72529;51.786;4.662;2024-03-08T01:06:31;6.03;74.11
82788;DHT22;72529;51.786;4.662;2024-03-08T01:08:57;5.97;74.52
82788;DHT22;72529;51.786;4.662;2024-03-08T01:11:22;5.93;74.48
82788;DHT22;72529;51.786;4.662;2024-03-08T01:13:47;5.89;74.49
82788;DHT22;72529;51.786;4.662;2024-03-08T01:16:13;5.85;74.53
82788;DHT22;72529;51.786;4.662;2024-03-08T01:18:38;5.85;74.87
82788;DHT22;72529;51.786;4.662;2024-03-08T01:21:04;5.80;74.95
82788;DHT22;72529;51.786;4.662;2024-03-08T01:23:29;5.69;75.01
82788;DHT22;72529;51.786;4.662;2024-03-08T01:25:55;5.91;74.83
82788;DHT22;72529;51.786;4.662;2024-03-08T01:28:24;5.93;74.72
82788;DHT22;72529;51.786;4.662;2024-03-08T01:30:50;5.91;74.46
82788;DHT22;72529;51.786;4.662;2024-03-08T01:33:24;5.93;74.56
82788;DHT22;72529;51.786;4.662;2024-03-08T01:35:53;5.85;74.31
82788;DHT22;72529;51.786;4.662;2024-03-08T01:38:20;5.94;74.19
82788;DHT22;72529;51.786;4.662;2024-03-08T01:40:49;5.87;74.14
82788;DHT22;72529;51.786;4.662;2024-03-08T01:43:23;5.94;74.04
82788;DHT22;72529;51.786;4.662;2024-03-08T01:45:51;5.83;73.88
82788;DHT22;72529;51.786;4.662;2024-03-08T01:48:17;5.74;74.11
82788;DHT22;72529;51.786;4.662;2024-03-08T01:50:44;5.67;74.31
82788;DHT22;72529;51.786;4.662;2024-03-08T01:53:10;5.66;74.42
82788;DHT22;72529;51.786;4.662;2024-03-08T01:55:38;5.83;73.65
82788;DHT22;72529;51.786;4.662;2024-03-08T01:58:05;5.77;74.11
82788;DHT22;72529;51.786;4.662;2024-03-08T02:00:33;5.80;73.45
82788;DHT22;72529;51.786;4.662;2024-03-08T02:02:58;5.71;73.74
82788;DHT22;72529;51.786;4.662;2024-03-08T02:05:24;5.69;74.07
82788;DHT22;72529;51.786;4.662;2024-03-08T02:07:49;5.70;73.88
82788;DHT22;72529;51.786;4.662;2024-03-08T02:10:15;5.70;73.79
82788;DHT22;72529;51.786;4.662;2024-03-08T02:12:41;5.63;73.20
82788;DHT22;72529;51.786;4.662;2024-03-08T02:15:07;5.65;73.78
82788;DHT22;72529;51.786;4.662;2024-03-08T02:17:33;5.63;73.62
82788;DHT22;72529;51.786;4.662;2024-03-08T02:20:01;5.69;73.35
82788;DHT22;72529;51.786;4.662;2024-03-08T02:22:30;5.71;73.15
82788;DHT22;72529;51.786;4.662;2024-03-08T02:24:58;5.69;73.51
82788;DHT22;72529;51.786;4.662;2024-03-08T02:27:26;5.63;73.23
82788;DHT22;72529;51.786;4.662;2024-03-08T02:29:55;5.55;73.25
82788;DHT22;72529;51.786;4.662;2024-03-08T02:32:24;5.63;73.22
82788;DHT22;72529;51.786;4.662;2024-03-08T02:34:50;5.65;72.88
82788;DHT22;72529;51.786;4.662;2024-03-08T02:37:16;5.67;72.73
82788;DHT22;72529;51.786;4.662;2024-03-08T02:39:42;5.55;72.65
82788;DHT22;72529;51.786;4.662;2024-03-08T02:42:08;5.31;73.29
82788;DHT22;72529;51.786;4.662;2024-03-08T02:44:33;5.31;73.73
82788;DHT22;72529;51.786;4.662;2024-03-08T02:46:59;5.45;73.39
82788;DHT22;72529;51.786;4.662;2024-03-08T02:49:25;5.39;73.39
82788;DHT22;72529;51.786;4.662;2024-03-08T02:51:52;5.49;73.45
82788;DHT22;72529;51.786;4.662;2024-03-08T02:54:18;5.31;73.10
82788;DHT22;72529;51.786;4.662;2024-03-08T02:56:45;5.36;73.26
82788;DHT22;72529;51.786;4.662;2024-03-08T02:59:15;5.28;73.11
82788;DHT22;72529;51.786;4.662;2024-03-08T03:01:43;5.38;73.54
82788;DHT22;72529;51.786;4.662;2024-03-08T03:04:09;5.25;73.63
82788;DHT22;72529;51.786;4.662;2024-03-08T03:06:34;5.25;73.62
82788;DHT22;72529;51.786;4.662;2024-03-08T03:09:01;5.22;73.57
82788;DHT22;72529;51.786;4.662;2024-03-08T03:11:27;5.22;73.83
82788;DHT22;72529;51.786;4.662;2024-03-08T03:13:52;5.29;73.56
82788;DHT22;72529;51.786;4.662;2024-03-08T03:16:19;5.29;73.35
82788;DHT22;72529;51.786;4.662;2024-03-08T03:18:45;5.28;72.94
82788;DHT22;72529;51.786;4.662;2024-03-08T03:21:11;5.32;73.17
82788;DHT22;72529;51.786;4.662;2024-03-08T03:23:41;5.26;72.98
82788;DHT22;72529;51.786;4.662;2024-03-08T03:26:10;5.18;73.33
82788;DHT22;72529;51.786;4.662;2024-03-08T03:28:39;5.18;73.30
82788;DHT22;72529;51.786;4.662;2024-03-08T03:31:08;5.14;73.35
82788;DHT22;72529;51.786;4.662;2024-03-08T03:33:39;5.11;73.57
82788;DHT22;72529;51.786;4.662;2024-03-08T03:36:05;5.19;73.09
82788;DHT22;72529;51.786;4.662;2024-03-08T03:38:30;5.05;73.17
82788;DHT22;72529;51.786;4.662;2024-03-08T03:40:56;5.05;73.32
82788;DHT22;72529;51.786;4.662;2024-03-08T03:43:23;5.02;73.29
82788;DHT22;72529;51.786;4.662;2024-03-08T03:45:48;5.02;72.81
82788;DHT22;72529;51.786;4.662;2024-03-08T03:48:14;5.04;73.35
82788;DHT22;72529;51.786;4.662;2024-03-08T03:50:39;5.05;72.97
82788;DHT22;72529;51.786;4.662;2024-03-08T03:53:05;5.07;73.07
82788;DHT22;72529;51.786;4.662;2024-03-08T03:55:34;5.09;72.92
82788;DHT22;72529;51.786;4.662;2024-03-08T03:57:59;4.85;73.02
82788;DHT22;72529;51.786;4.662;2024-03-08T04:00:27;4.94;73.24
82788;DHT22;72529;51.786;4.662;2024-03-08T04:02:52;4.98;72.65
82788;DHT22;72529;51.786;4.662;2024-03-08T04:05:18;4.94;73.19
82788;DHT22;72529;51.786;4.662;2024-03-08T04:07:44;4.89;72.89
82788;DHT22;72529;51.786;4.662;2024-03-08T04:10:11;4.89;73.22
82788;DHT22;72529;51.786;4.662;2024-03-08T04:12:37;5.01;72.66
82788;DHT22;72529;51.786;4.662;2024-03-08T04:15:04;5.07;72.42
82788;DHT22;72529;51.786;4.662;2024-03-08T04:17:33;4.95;72.79
82788;DHT22;72529;51.786;4.662;2024-03-08T04:20:02;4.92;72.30
82788;DHT22;72529;51.786;4.662;2024-03-08T04:22:30;4.89;72.72
82788;DHT22;72529;51.786;4.662;2024-03-08T04:24:55;4.83;72.64
82788;DHT22;72529;51.786;4.662;2024-03-08T04:27:20;4.77;72.59
82788;DHT22;72529;51.786;4.662;2024-03-08T04:29:46;4.74;72.76
82788;DHT22;72529;51.786;4.662;2024-03-08T04:32:11;4.80;72.63
82788;DHT22;72529;51.786;4.662;2024-03-08T04:34:38;4.78;72.48
82788;DHT22;72529;51.786;4.662;2024-03-08T04:37:04;4.84;72.26
82788;DHT22;72529;51.786;4.662;2024-03-08T04:39:30;4.81;72.46
82788;DHT22;72529;51.786;4.662;2024-03-08T04:42:02;4.73;72.56
82788;DHT22;72529;51.786;4.662;2024-03-08T04:44:36;4.61;72.70
82788;DHT22;72529;51.786;4.662;2024-03-08T04:47:03;4.61;72.91
82788;DHT22;72529;51.786;4.662;2024-03-08T04:49:32;4.65;72.52
82788;DHT22;72529;51.786;4.662;2024-03-08T04:52:03;4.65;72.25
82788;DHT22;72529;51.786;4.662;2024-03-08T04:54:29;4.61;72.66
82788;DHT22;72529;51.786;4.662;2024-03-08T04:56:55;4.53;72.75
82788;DHT22;72529;51.786;4.662;2024-03-08T04:59:21;4.54;72.74
82788;DHT22;72529;51.786;4.662;2024-03-08T05:01:46;4.60;72.85
82788;DHT22;72529;51.786;4.662;2024-03-08T05:04:13;4.68;72.61
82788;DHT22;72529;51.786;4.662;2024-03-08T05:06:38;4.70;72.14
82788;DHT22;72529;51.786;4.662;2024-03-08T05:09:04;4.74;72.16
82788;DHT22;72529;51.786;4.662;2024-03-08T05:11:42;4.75;72.02
82788;DHT22;72529;51.786;4.662;2024-03-08T05:14:12;4.70;72.22
82788;DHT22;72529;51.786;4.662;2024-03-08T05:16:46;4.70;72.01
82788;DHT22;72529;51.786;4.662;2024-03-08T05:19:15;4.68;72.16
82788;DHT22;72529;51.786;4.662;2024-03-08T05:21:44;4.64;71.84
82788;DHT22;72529;51.786;4.662;2024-03-08T05:24:10;4.60;72.38
82788;DHT22;72529;51.786;4.662;2024-03-08T05:26:36;4.58;72.36
82788;DHT22;72529;51.786;4.662;2024-03-08T05:29:03;4.60;71.85
82788;DHT22;72529;51.786;4.662;2024-03-08T05:31:28;4.49;72.19
82788;DHT22;72529;51.786;4.662;2024-03-08T05:33:54;4.51;72.30
82788;DHT22;72529;51.786;4.662;2024-03-08T05:36:21;4.56;72.17
82788;DHT22;72529;51.786;4.662;2024-03-08T05:38:46;4.57;71.94
82788;DHT22;72529;51.786;4.662;2024-03-08T05:41:12;4.57;71.99
82788;DHT22;72529;51.786;4.662;2024-03-08T05:43:38;4.57;71.54
82788;DHT22;72529;51.786;4.662;2024-03-08T05:46:04;4.50;71.99
82788;DHT22;72529;51.786;4.662;2024-03-08T05:48:30;4.44;72.12
82788;DHT22;72529;51.786;4.662;2024-03-08T05:50:57;4.39;72.32
82788;DHT22;72529;51.786;4.662;2024-03-08T05:53:23;4.49;72.39
82788;DHT22;72529;51.786;4.662;2024-03-08T05:55:48;4.54;71.42
82788;DHT22;72529;51.786;4.662;2024-03-08T05:58:15;4.39;72.00
82788;DHT22;72529;51.786;4.662;2024-03-08T06:00:40;4.41;72.25
82788;DHT22;72529;51.786;4.662;2024-03-08T06:03:05;4.41;72.03
82788;DHT22;72529;51.786;4.662;2024-03-08T06:05:31;4.33;72.39
82788;DHT22;72529;51.786;4.662;2024-03-08T06:07:56;4.41;71.59
82788;DHT22;72529;51.786;4.662;2024-03-08T06:10:22;4.39;71.90
82788;DHT22;72529;51.786;4.662;2024-03-08T06:12:47;4.41;71.53
82788;DHT22;72529;51.786;4.662;2024-03-08T06:15:13;4.32;72.01
82788;DHT22;72529;51.786;4.662;2024-03-08T06:17:41;4.37;71.92
82788;DHT22;72529;51.786;4.662;2024-03-08T06:20:07;4.36;71.85
82788;DHT22;72529;51.786;4.662;2024-03-08T06:22:42;4.39;71.71
82788;DHT22;72529;51.786;4.662;2024-03-08T06:25:13;4.40;72.09
82788;DHT22;72529;51.786;4.662;2024-03-08T06:27:43;4.43;71.36
82788;DHT22;72529;51.786;4.662;2024-03-08T06:30:10;4.40;71.87
82788;DHT22;72529;51.786;4.662;2024-03-08T06:32:39;4.36;72.10
82788;DHT22;72529;51.786;4.662;2024-03-08T06:35:05;4.33;71.79
82788;DHT22;72529;51.786;4.662;2024-03-08T06:37:32;4.39;71.88
82788;DHT22;72529;51.786;4.662;2024-03-08T06:39:57;4.43;71.53
82788;DHT22;72529;51.786;4.662;2024-03-08T06:42:23;4.34;71.77
82788;DHT22;72529;51.786;4.662;2024-03-08T06:44:48;4.36;71.76
82788;DHT22;72529;51.786;4.662;2024-03-08T06:47:17;4.47;71.58
82788;DHT22;72529;51.786;4.662;2024-03-08T06:49:43;4.49;71.40
82788;DHT22;72529;51.786;4.662;2024-03-08T06:52:10;4.56;71.02
82788;DHT22;72529;51.786;4.662;2024-03-08T06:54:36;4.60;70.89
82788;DHT22;72529;51.786;4.662;2024-03-08T06:57:03;4.57;71.01
82788;DHT22;72529;51.786;4.662;2024-03-08T06:59:29;4.58;71.36
82788;DHT22;72529;51.786;4.662;2024-03-08T07:01:54;4.58;71.20
82788;DHT22;72529;51.786;4.662;2024-03-08T07:04:20;4.60;71.84
82788;DHT22;72529;51.786;4.662;2024-03-08T07:06:47;4.68;71.15
82788;DHT22;72529;51.786;4.662;2024-03-08T07:09:15;4.67;71.50
82788;DHT22;72529;51.786;4.662;2024-03-08T07:11:44;4.64;71.23
82788;DHT22;72529;51.786;4.662;2024-03-08T07:14:09;4.74;71.29
82788;DHT22;72529;51.786;4.662;2024-03-08T07:16:35;4.68;71.30
82788;DHT22;72529;51.786;4.662;2024-03-08T07:19:01;4.63;71.34
82788;DHT22;72529;51.786;4.662;2024-03-08T07:21:27;4.73;71.56
82788;DHT22;72529;51.786;4.662;2024-03-08T07:23:53;4.73;71.26
82788;DHT22;72529;51.786;4.662;2024-03-08T07:26:24;4.78;71.48
82788;DHT22;72529;51.786;4.662;2024-03-08T07:28:49;4.92;70.83
82788;DHT22;72529;51.786;4.662;2024-03-08T07:31:15;5.02;70.46
82788;DHT22;72529;51.786;4.662;2024-03-08T07:33:40;5.02;70.64
82788;DHT22;72529;51.786;4.662;2024-03-08T07:36:06;5.07;70.27
82788;DHT22;72529;51.786;4.662;2024-03-08T07:38:31;5.05;70.64
82788;DHT22;72529;51.786;4.662;2024-03-08T07:40:56;5.14;70.30
82788;DHT22;72529;51.786;4.662;2024-03-08T07:43:22;5.14;70.25
82788;DHT22;72529;51.786;4.662;2024-03-08T07:45:48;5.11;70.36
82788;DHT22;72529;51.786;4.662;2024-03-08T07:48:13;5.18;70.23
82788;DHT22;72529;51.786;4.662;2024-03-08T07:50:40;5.22;70.13
82788;DHT22;72529;51.786;4.662;2024-03-08T07:53:09;5.22;70.25
82788;DHT22;72529;51.786;4.662;2024-03-08T07:55:35;5.32;69.81
82788;DHT22;72529;51.786;4.662;2024-03-08T07:58:04;5.46;69.26
82788;DHT22;72529;51.786;4.662;2024-03-08T08:00:30;5.40;69.53
82788;DHT22;72529;51.786;4.662;2024-03-08T08:02:57;5.56;68.81
82788;DHT22;72529;51.786;4.662;2024-03-08T08:05:22;5.53;69.08
82788;DHT22;72529;51.786;4.662;2024-03-08T08:07:48;5.62;69.14
82788;DHT22;72529;51.786;4.662;2024-03-08T08:10:13;5.66;69.14
82788;DHT22;72529;51.786;4.662;2024-03-08T08:12:44;5.69;68.81
82788;DHT22;72529;51.786;4.662;2024-03-08T08:15:10;5.76;68.12
82788;DHT22;72529;51.786;4.662;2024-03-08T08:17:35;5.66;68.84
82788;DHT22;72529;51.786;4.662;2024-03-08T08:20:01;5.80;67.97
82788;DHT22;72529;51.786;4.662;2024-03-08T08:22:30;5.79;68.43
82788;DHT22;72529;51.786;4.662;2024-03-08T08:24:56;5.87;67.94
82788;DHT22;72529;51.786;4.662;2024-03-08T08:27:21;5.87;68.31
82788;DHT22;72529;51.786;4.662;2024-03-08T08:29:46;5.90;68.14
82788;DHT22;72529;51.786;4.662;2024-03-08T08:32:12;5.93;68.33
82788;DHT22;72529;51.786;4.662;2024-03-08T08:34:38;6.06;68.17
82788;DHT22;72529;51.786;4.662;2024-03-08T08:37:03;6.24;67.40
82788;DHT22;72529;51.786;4.662;2024-03-08T08:39:28;6.11;67.90
82788;DHT22;72529;51.786;4.662;2024-03-08T08:41:54;6.31;67.49
82788;DHT22;72529;51.786;4.662;2024-03-08T08:44:19;6.37;66.83
82788;DHT22;72529;51.786;4.662;2024-03-08T08:46:45;6.42;67.03
82788;DHT22;72529;51.786;4.662;2024-03-08T08:49:10;6.42;67.10
82788;DHT22;72529;51.786;4.662;2024-03-08T08:51:40;6.48;66.63
82788;DHT22;72529;51.786;4.662;2024-03-08T08:54:05;6.40;66.81
82788;DHT22;72529;51.786;4.662;2024-03-08T08:56:31;6.48;67.34
82788;DHT22;72529;51.786;4.662;2024-03-08T08:58:57;6.62;67.07
82788;DHT22;72529;51.786;4.662;2024-03-08T09:01:23;6.69;66.10
82788;DHT22;72529;51.786;4.662;2024-03-08T09:03:48;6.67;66.20
82788;DHT22;72529;51.786;4.662;2024-03-08T09:06:16;6.69;66.13
82788;DHT22;72529;51.786;4.662;2024-03-08T09:08:42;6.78;65.88
82788;DHT22;72529;51.786;4.662;2024-03-08T09:11:09;6.92;66.09
82788;DHT22;72529;51.786;4.662;2024-03-08T09:13:35;7.02;66.71
82788;DHT22;72529;51.786;4.662;2024-03-08T09:16:02;7.12;65.43
82788;DHT22;72529;51.786;4.662;2024-03-08T09:18:28;7.31;65.24
82788;DHT22;72529;51.786;4.662;2024-03-08T09:20:54;7.33;65.93
82788;DHT22;72529;51.786;4.662;2024-03-08T09:23:20;7.46;65.38
82788;DHT22;72529;51.786;4.662;2024-03-08T09:25:46;7.57;64.22
82788;DHT22;72529;51.786;4.662;2024-03-08T09:28:12;7.59;64.17
82788;DHT22;72529;51.786;4.662;2024-03-08T09:30:38;7.60;65.20
82788;DHT22;72529;51.786;4.662;2024-03-08T09:33:04;7.71;64.98
82788;DHT22;72529;51.786;4.662;2024-03-08T09:35:31;7.75;64.14
82788;DHT22;72529;51.786;4.662;2024-03-08T09:37:56;7.90;64.43
82788;DHT22;72529;51.786;4.662;2024-03-08T09:40:22;7.88;64.29
82788;DHT22;72529;51.786;4.662;2024-03-08T09:42:49;8.01;64.15
82788;DHT22;72529;51.786;4.662;2024-03-08T09:45:17;8.20;63.76
82788;DHT22;72529;51.786;4.662;2024-03-08T09:47:44;8.32;63.67
82788;DHT22;72529;51.786;4.662;2024-03-08T09:50:11;8.36;63.51
82788;DHT22;72529;51.786;4.662;2024-03-08T09:52:40;8.67;63.16
82788;DHT22;72529;51.786;4.662;2024-03-08T09:55:06;8.86;62.05
82788;DHT22;72529;51.786;4.662;2024-03-08T09:57:33;8.96;62.57
82788;DHT22;72529;51.786;4.662;2024-03-08T10:00:03;9.03;61.79
82788;DHT22;72529;51.786;4.662;2024-03-08T10:02:37;9.03;61.70
82788;DHT22;72529;51.786;4.662;2024-03-08T10:05:02;9.11;61.38
82788;DHT22;72529;51.786;4.662;2024-03-08T10:07:28;9.14;61.65
82788;DHT22;72529;51.786;4.662;2024-03-08T10:09:54;9.21;60.88
82788;DHT22;72529;51.786;4.662;2024-03-08T10:12:19;9.35;61.29
82788;DHT22;72529;51.786;4.662;2024-03-08T10:14:45;9.35;61.22
82788;DHT22;72529;51.786;4.662;2024-03-08T10:17:12;9.58;59.91
82788;DHT22;72529;51.786;4.662;2024-03-08T10:19:37;9.51;60.22
82788;DHT22;72529;51.786;4.662;2024-03-08T10:22:04;9.61;60.66
82788;DHT22;72529;51.786;4.662;2024-03-08T10:24:31;9.86;60.22
82788;DHT22;72529;51.786;4.662;2024-03-08T10:27:02;9.88;59.01
82788;DHT22;72529;51.786;4.662;2024-03-08T10:29:33;9.98;59.07
82788;DHT22;72529;51.786;4.662;2024-03-08T10:31:59;10.03;59.93
82788;DHT22;72529;51.786;4.662;2024-03-08T10:34:24;10.05;59.24
82788;DHT22;72529;51.786;4.662;2024-03-08T10:36:52;10.15;59.44
82788;DHT22;72529;51.786;4.662;2024-03-08T10:39:23;10.23;58.92
82788;DHT22;72529;51.786;4.662;2024-03-08T10:41:59;10.25;58.31
82788;DHT22;72529;51.786;4.662;2024-03-08T10:47:02;10.22;57.70
82788;DHT22;72529;51.786;4.662;2024-03-08T10:49:35;10.30;57.83
82788;DHT22;72529;51.786;4.662;2024-03-08T10:52:05;10.36;58.65
82788;DHT22;72529;51.786;4.662;2024-03-08T10:54:36;10.57;59.26
82788;DHT22;72529;51.786;4.662;2024-03-08T10:57:05;10.74;58.84
82788;DHT22;72529;51.786;4.662;2024-03-08T10:59:32;10.83;57.69
82788;DHT22;72529;51.786;4.662;2024-03-08T11:01:59;10.88;57.81
82788;DHT22;72529;51.786;4.662;2024-03-08T11:04:25;10.88;58.52
82788;DHT22;72529;51.786;4.662;2024-03-08T11:06:51;10.94;57.77
82788;DHT22;72529;51.786;4.662;2024-03-08T11:09:32;11.19;57.47
82788;DHT22;72529;51.786;4.662;2024-03-08T11:12:23;11.29;56.37
82788;DHT22;72529;51.786;4.662;2024-03-08T11:15:09;11.39;56.61
82788;DHT22;72529;51.786;4.662;2024-03-08T11:20:20;11.48;54.83
82788;DHT22;72529;51.786;4.662;2024-03-08T11:22:51;11.49;54.90
82788;DHT22;72529;51.786;4.662;2024-03-08T11:28:20;11.87;55.70
82788;DHT22;72529;51.786;4.662;2024-03-08T11:33:27;12.12;54.18
82788;DHT22;72529;51.786;4.662;2024-03-08T11:36:13;11.96;54.61
82788;DHT22;72529;51.786;4.662;2024-03-08T11:38:44;11.93;54.25
82788;DHT22;72529;51.786;4.662;2024-03-08T11:41:17;11.86;53.41
82788;DHT22;72529;51.786;4.662;2024-03-08T11:43:45;12.00;53.57
82788;DHT22;72529;51.786;4.662;2024-03-08T11:46:12;12.02;53.17
82788;DHT22;72529;51.786;4.662;2024-03-08T11:48:39;12.19;53.04
82788;DHT22;72529;51.786;4.662;2024-03-08T11:51:08;12.37;51.80
82788;DHT22;72529;51.786;4.662;2024-03-08T11:53:33;12.37;51.92
82788;DHT22;72529;51.786;4.662;2024-03-08T11:56:10;12.41;52.11
82788;DHT22;72529;51.786;4.662;2024-03-08T11:58:37;12.29;52.27
82788;DHT22;72529;51.786;4.662;2024-03-08T12:01:04;12.40;52.53
82788;DHT22;72529;51.786;4.662;2024-03-08T12:03:31;12.50;51.67
82788;DHT22;72529;51.786;4.662;2024-03-08T12:06:00;12.50;52.23
82788;DHT22;72529;51.786;4.662;2024-03-08T12:08:25;12.68;52.66
82788;DHT22;72529;51.786;4.662;2024-03-08T12:10:54;12.73;51.25
82788;DHT22;72529;51.786;4.662;2024-03-08T12:13:27;12.74;52.58
82788;DHT22;72529;51.786;4.662;2024-03-08T12:16:01;13.01;51.28
82788;DHT22;72529;51.786;4.662;2024-03-08T12:18:33;13.23;51.27
82788;DHT22;72529;51.786;4.662;2024-03-08T12:21:10;13.25;50.32
82788;DHT22;72529;51.786;4.662;2024-03-08T12:23:38;13.29;49.87
82788;DHT22;72529;51.786;4.662;2024-03-08T12:26:14;13.35;49.58
82788;DHT22;72529;51.786;4.662;2024-03-08T12:28:42;13.18;49.70
82788;DHT22;72529;51.786;4.662;2024-03-08T12:31:12;13.11;50.01
82788;DHT22;72529;51.786;4.662;2024-03-08T12:36:15;13.12;50.73
82788;DHT22;72529;51.786;4.662;2024-03-08T12:38:44;13.07;49.52
82788;DHT22;72529;51.786;4.662;2024-03-08T12:41:13;13.04;50.42
82788;DHT22;72529;51.786;4.662;2024-03-08T12:43:39;13.19;51.02
82788;DHT22;72529;51.786;4.662;2024-03-08T12:46:04;13.30;50.20
82788;DHT22;72529;51.786;4.662;2024-03-08T12:48:37;13.38;49.40
82788;DHT22;72529;51.786;4.662;2024-03-08T12:51:06;13.39;49.42
82788;DHT22;72529;51.786;4.662;2024-03-08T12:53:33;13.48;50.02
82788;DHT22;72529;51.786;4.662;2024-03-08T12:55:58;13.63;49.32
82788;DHT22;72529;51.786;4.662;2024-03-08T12:58:24;13.73;48.91
82788;DHT22;72529;51.786;4.662;2024-03-08T13:00:51;13.87;48.77
82788;DHT22;72529;51.786;4.662;2024-03-08T13:03:17;14.00;49.13
82788;DHT22;72529;51.786;4.662;2024-03-08T13:05:42;14.03;48.59
82788;DHT22;72529;51.786;4.662;2024-03-08T13:08:08;14.02;49.59
82788;DHT22;72529;51.786;4.662;2024-03-08T13:10:41;14.06;47.60
82788;DHT22;72529;51.786;4.662;2024-03-08T13:13:09;14.03;48.46
82788;DHT22;72529;51.786;4.662;2024-03-08T13:15:35;14.14;50.00
82788;DHT22;72529;51.786;4.662;2024-03-08T13:18:01;14.25;49.78
82788;DHT22;72529;51.786;4.662;2024-03-08T13:20:26;14.30;49.54
82788;DHT22;72529;51.786;4.662;2024-03-08T13:22:53;14.30;49.08
82788;DHT22;72529;51.786;4.662;2024-03-08T13:25:19;14.35;50.17
82788;DHT22;72529;51.786;4.662;2024-03-08T13:27:45;14.49;49.24
82788;DHT22;72529;51.786;4.662;2024-03-08T13:30:12;14.54;48.55
82788;DHT22;72529;51.786;4.662;2024-03-08T13:32:42;14.42;49.05
82788;DHT22;72529;51.786;4.662;2024-03-08T13:35:11;14.48;49.39
82788;DHT22;72529;51.786;4.662;2024-03-08T13:37:41;14.52;50.21
82788;DHT22;72529;51.786;4.662;2024-03-08T13:40:09;14.63;49.57
82788;DHT22;72529;51.786;4.662;2024-03-08T13:42:40;14.52;48.79
82788;DHT22;72529;51.786;4.662;2024-03-08T13:45:10;14.52;49.39
82788;DHT22;72529;51.786;4.662;2024-03-08T13:47:37;14.72;49.57
82788;DHT22;72529;51.786;4.662;2024-03-08T13:50:07;14.74;49.24
82788;DHT22;72529;51.786;4.662;2024-03-08T13:52:37;14.93;49.37
82788;DHT22;72529;51.786;4.662;2024-03-08T13:55:04;15.03;48.22
82788;DHT22;72529;51.786;4.662;2024-03-08T13:57:30;14.77;48.40
82788;DHT22;72529;51.786;4.662;2024-03-08T13:59:57;14.72;48.67
82788;DHT22;72529;51.786;4.662;2024-03-08T14:02:23;14.63;49.20
82788;DHT22;72529;51.786;4.662;2024-03-08T14:04:53;14.69;48.78
82788;DHT22;72529;51.786;4.662;2024-03-08T14:07:20;14.64;48.26
82788;DHT22;72529;51.786;4.662;2024-03-08T14:09:46;14.54;49.40
82788;DHT22;72529;51.786;4.662;2024-03-08T14:12:11;14.61;48.72
82788;DHT22;72529;51.786;4.662;2024-03-08T14:14:37;14.49;49.08
82788;DHT22;72529;51.786;4.662;2024-03-08T14:17:02;14.45;49.16
82788;DHT22;72529;51.786;4.662;2024-03-08T14:19:29;14.41;48.62
82788;DHT22;72529;51.786;4.662;2024-03-08T14:21:56;14.55;49.49
82788;DHT22;72529;51.786;4.662;2024-03-08T14:24:24;14.57;50.50
82788;DHT22;72529;51.786;4.662;2024-03-08T14:26:49;14.61;50.14
82788;DHT22;72529;51.786;4.662;2024-03-08T14:29:16;14.57;49.89
82788;DHT22;72529;51.786;4.662;2024-03-08T14:31:43;14.49;49.59
82788;DHT22;72529;51.786;4.662;2024-03-08T14:34:08;14.28;49.00
82788;DHT22;72529;51.786;4.662;2024-03-08T14:36:34;14.20;50.57
82788;DHT22;72529;51.786;4.662;2024-03-08T14:39:00;14.21;51.12
82788;DHT22;72529;51.786;4.662;2024-03-08T14:41:25;14.17;50.84
82788;DHT22;72529;51.786;4.662;2024-03-08T14:43:52;14.03;50.57
82788;DHT22;72529;51.786;4.662;2024-03-08T14:46:22;14.02;51.88
82788;DHT22;72529;51.786;4.662;2024-03-08T14:48:52;13.96;50.37
82788;DHT22;72529;51.786;4.662;2024-03-08T14:51:20;13.96;50.32
82788;DHT22;72529;51.786;4.662;2024-03-08T14:53:54;13.82;51.21
82788;DHT22;72529;51.786;4.662;2024-03-08T14:56:20;13.76;51.30
82788;DHT22;72529;51.786;4.662;2024-03-08T14:58:46;13.67;50.37
82788;DHT22;72529;51.786;4.662;2024-03-08T15:01:15;13.58;51.17
82788;DHT22;72529;51.786;4.662;2024-03-08T15:03:41;13.39;50.84
82788;DHT22;72529;51.786;4.662;2024-03-08T15:06:09;13.30;51.75
82788;DHT22;72529;51.786;4.662;2024-03-08T15:08:39;13.16;51.68
82788;DHT22;72529;51.786;4.662;2024-03-08T15:11:05;13.19;52.80
82788;DHT22;72529;51.786;4.662;2024-03-08T15:13:32;13.35;51.79
82788;DHT22;72529;51.786;4.662;2024-03-08T15:16:10;13.19;52.50
82788;DHT22;72529;51.786;4.662;2024-03-08T15:18:44;13.11;52.70
82788;DHT22;72529;51.786;4.662;2024-03-08T15:21:14;12.99;52.26
82788;DHT22;72529;51.786;4.662;2024-03-08T15:23:46;12.97;53.76
82788;DHT22;72529;51.786;4.662;2024-03-08T15:26:17;13.08;53.81
82788;DHT22;72529;51.786;4.662;2024-03-08T15:28:44;13.08;52.03
82788;DHT22;72529;51.786;4.662;2024-03-08T15:31:12;12.92;53.35
82788;DHT22;72529;51.786;4.662;2024-03-08T15:33:39;12.88;52.56
82788;DHT22;72529;51.786;4.662;2024-03-08T15:36:14;12.89;53.68
82788;DHT22;72529;51.786;4.662;2024-03-08T15:38:43;12.87;53.17
82788;DHT22;72529;51.786;4.662;2024-03-08T15:41:14;12.84;53.44
82788;DHT22;72529;51.786;4.662;2024-03-08T15:43:40;12.81;53.37
82788;DHT22;72529;51.786;4.662;2024-03-08T15:46:07;12.74;53.14
82788;DHT22;72529;51.786;4.662;2024-03-08T15:48:35;12.63;53.07
82788;DHT22;72529;51.786;4.662;2024-03-08T15:51:01;12.51;53.61
82788;DHT22;72529;51.786;4.662;2024-03-08T15:53:36;12.60;53.92